logo tempoitalia

Diretta Meteo Great Bend, Stati Uniti (USA)lunedì 31 agosto ore 00:56

Mappa
Sereno 27 °C Molto Nuvoloso 24 Ore: T.min 26 T.max 41
Ponente Ovest/Nord-Ovest Km/h 9.3 Punto di rugiada: 17 °C Umidità: 54% Visibilità: 10 Km
Il sole sorge alle: 07:04 Il sole tramonta alle: 20:07
31 Agosto 2026 00:56 tempo osservato: Molto Nuvoloso Molto Nuvoloso 27 54 1014 vento: Nord O/NO 9.3
30 Agosto 2026 23:56 tempo osservato: Sereno Sereno 29 45 1012 vento: Nord S 14.8
30 Agosto 2026 22:56 tempo osservato: Sereno Sereno 29 45 1011 vento: Nord S 16.7
30 Agosto 2026 21:56 tempo osservato: Sereno Sereno 29 48 1011 vento: Nord S 16.7
30 Agosto 2026 20:56 tempo osservato: Sereno Sereno 32 38 1010 vento: Nord S 16.7
30 Agosto 2026 19:56 tempo osservato: Sereno Sereno 35 32 1009 vento: Nord S 14.8
30 Agosto 2026 18:56 tempo osservato: Sereno Sereno 39 24 1009 vento: Nord S 31.5
30 Agosto 2026 17:56 tempo osservato: Sereno Sereno 41 21 1008 vento: Nord S 37
30 Agosto 2026 16:56 tempo osservato: Sereno Sereno 41 20 1009 vento: Nord SO 24
30 Agosto 2026 15:56 tempo osservato: Sereno Sereno 40 24 1009 vento: Nord S/SO 25.9
30 Agosto 2026 14:56 tempo osservato: Sereno Sereno 39 26 1010 vento: Nord S/SO 25.9
30 Agosto 2026 13:56 tempo osservato: Sereno Sereno 37 27 1011 vento: Nord S/SO 27.8
30 Agosto 2026 12:56 tempo osservato: Sereno Sereno 37 28 1011 vento: Nord SO 16.7
30 Agosto 2026 11:56 tempo osservato: Sereno Sereno 35 32 1012 vento: Nord SO 27.8
30 Agosto 2026 10:56 tempo osservato: Sereno Sereno 33 36 1011 vento: Nord SO 24
30 Agosto 2026 09:56 tempo osservato: Sereno Sereno 31 40 1011 vento: Nord S/SO 31.5
30 Agosto 2026 08:56 tempo osservato: Sereno Sereno 28 45 1011 vento: Nord S 33.3
30 Agosto 2026 07:56 tempo osservato: Sereno Sereno 26 47 1012 vento: Nord S 25.9
30 Agosto 2026 06:56 tempo osservato: Sereno Sereno 26 47 1011 vento: Nord S 24
30 Agosto 2026 05:56 tempo osservato: Sereno Sereno 27 44 1011 vento: Nord S 29.6
30 Agosto 2026 04:56 tempo osservato: Sereno Sereno 27 44 1011 vento: Nord S 29.6
30 Agosto 2026 03:56 tempo osservato: Sereno Sereno 28 39 1011 vento: Nord S 33.3
30 Agosto 2026 02:56 tempo osservato: Sereno Sereno 28 39 1012 vento: Nord S 24
30 Agosto 2026 01:56 tempo osservato: Sereno Sereno 29 37 1012 vento: Nord S 24